sensor_id;sensor_type;location;lat;lon;timestamp;P1;durP1;ratioP1;P2;durP2;ratioP2
42832;SDS011;64089;51.478;5.692;2023-04-21T00:01:11;28.02;;;16.27;;
42832;SDS011;64089;51.478;5.692;2023-04-21T00:03:37;35.70;;;16.05;;
42832;SDS011;64089;51.478;5.692;2023-04-21T00:06:03;28.70;;;15.20;;
42832;SDS011;64089;51.478;5.692;2023-04-21T00:08:33;34.88;;;17.73;;
42832;SDS011;64089;51.478;5.692;2023-04-21T00:11:04;30.00;;;15.57;;
42832;SDS011;64089;51.478;5.692;2023-04-21T00:13:33;30.60;;;16.10;;
42832;SDS011;64089;51.478;5.692;2023-04-21T00:16:00;31.10;;;16.13;;
42832;SDS011;64089;51.478;5.692;2023-04-21T00:18:26;31.23;;;16.85;;
42832;SDS011;64089;51.478;5.692;2023-04-21T00:20:52;33.95;;;16.95;;
42832;SDS011;64089;51.478;5.692;2023-04-21T00:23:18;30.75;;;16.27;;
42832;SDS011;64089;51.478;5.692;2023-04-21T00:25:43;36.00;;;17.42;;
42832;SDS011;64089;51.478;5.692;2023-04-21T00:28:09;38.50;;;17.30;;
42832;SDS011;64089;51.478;5.692;2023-04-21T00:30:35;32.90;;;18.42;;
42832;SDS011;64089;51.478;5.692;2023-04-21T00:33:00;37.75;;;18.70;;
42832;SDS011;64089;51.478;5.692;2023-04-21T00:35:27;34.38;;;17.15;;
42832;SDS011;64089;51.478;5.692;2023-04-21T00:37:53;30.77;;;15.05;;
42832;SDS011;64089;51.478;5.692;2023-04-21T00:40:18;38.30;;;17.08;;
42832;SDS011;64089;51.478;5.692;2023-04-21T00:42:44;29.65;;;15.77;;
42832;SDS011;64089;51.478;5.692;2023-04-21T00:45:10;34.35;;;18.08;;
42832;SDS011;64089;51.478;5.692;2023-04-21T00:47:35;40.58;;;18.27;;
42832;SDS011;64089;51.478;5.692;2023-04-21T00:50:01;34.50;;;16.52;;
42832;SDS011;64089;51.478;5.692;2023-04-21T00:52:28;37.70;;;16.15;;
42832;SDS011;64089;51.478;5.692;2023-04-21T00:54:54;35.22;;;18.45;;
42832;SDS011;64089;51.478;5.692;2023-04-21T00:57:20;36.17;;;17.38;;
42832;SDS011;64089;51.478;5.692;2023-04-21T00:59:47;41.08;;;18.25;;
42832;SDS011;64089;51.478;5.692;2023-04-21T01:02:14;37.58;;;17.60;;
42832;SDS011;64089;51.478;5.692;2023-04-21T01:04:41;36.45;;;17.58;;
42832;SDS011;64089;51.478;5.692;2023-04-21T01:07:07;35.40;;;16.55;;
42832;SDS011;64089;51.478;5.692;2023-04-21T01:09:34;36.97;;;17.13;;
42832;SDS011;64089;51.478;5.692;2023-04-21T01:14:35;40.10;;;17.35;;
42832;SDS011;64089;51.478;5.692;2023-04-21T01:17:02;35.03;;;16.88;;
42832;SDS011;64089;51.478;5.692;2023-04-21T01:19:32;32.97;;;16.60;;
42832;SDS011;64089;51.478;5.692;2023-04-21T01:22:00;37.80;;;15.82;;
42832;SDS011;64089;51.478;5.692;2023-04-21T01:27:02;39.10;;;16.17;;
42832;SDS011;64089;51.478;5.692;2023-04-21T01:29:32;38.92;;;16.67;;
42832;SDS011;64089;51.478;5.692;2023-04-21T01:32:02;28.33;;;14.77;;
42832;SDS011;64089;51.478;5.692;2023-04-21T01:34:32;36.28;;;15.82;;
42832;SDS011;64089;51.478;5.692;2023-04-21T01:36:58;36.78;;;15.60;;
42832;SDS011;64089;51.478;5.692;2023-04-21T01:39:23;32.22;;;15.02;;
42832;SDS011;64089;51.478;5.692;2023-04-21T01:41:49;32.42;;;15.98;;
42832;SDS011;64089;51.478;5.692;2023-04-21T01:44:15;30.48;;;15.35;;
42832;SDS011;64089;51.478;5.692;2023-04-21T01:46:41;32.92;;;14.32;;
42832;SDS011;64089;51.478;5.692;2023-04-21T01:49:06;34.47;;;15.73;;
42832;SDS011;64089;51.478;5.692;2023-04-21T01:51:32;30.48;;;16.10;;
42832;SDS011;64089;51.478;5.692;2023-04-21T01:53:58;35.35;;;15.52;;
42832;SDS011;64089;51.478;5.692;2023-04-21T01:56:23;40.42;;;16.95;;
42832;SDS011;64089;51.478;5.692;2023-04-21T01:58:49;33.63;;;16.00;;
42832;SDS011;64089;51.478;5.692;2023-04-21T02:01:17;41.55;;;17.38;;
42832;SDS011;64089;51.478;5.692;2023-04-21T02:03:42;40.22;;;18.90;;
42832;SDS011;64089;51.478;5.692;2023-04-21T02:06:09;34.70;;;15.68;;
42832;SDS011;64089;51.478;5.692;2023-04-21T02:08:35;37.90;;;16.48;;
42832;SDS011;64089;51.478;5.692;2023-04-21T02:11:01;42.30;;;18.92;;
42832;SDS011;64089;51.478;5.692;2023-04-21T02:13:26;44.13;;;17.98;;
42832;SDS011;64089;51.478;5.692;2023-04-21T02:15:52;43.08;;;17.90;;
42832;SDS011;64089;51.478;5.692;2023-04-21T02:18:17;41.22;;;17.52;;
42832;SDS011;64089;51.478;5.692;2023-04-21T02:20:44;41.45;;;16.83;;
42832;SDS011;64089;51.478;5.692;2023-04-21T02:23:09;40.38;;;17.67;;
42832;SDS011;64089;51.478;5.692;2023-04-21T02:25:35;39.25;;;18.20;;
42832;SDS011;64089;51.478;5.692;2023-04-21T02:28:01;43.42;;;18.80;;
42832;SDS011;64089;51.478;5.692;2023-04-21T02:30:26;41.08;;;17.75;;
42832;SDS011;64089;51.478;5.692;2023-04-21T02:32:52;37.88;;;17.15;;
42832;SDS011;64089;51.478;5.692;2023-04-21T02:35:18;36.17;;;17.15;;
42832;SDS011;64089;51.478;5.692;2023-04-21T02:37:43;39.05;;;19.23;;
42832;SDS011;64089;51.478;5.692;2023-04-21T02:40:09;33.55;;;16.63;;
42832;SDS011;64089;51.478;5.692;2023-04-21T02:42:35;44.83;;;18.38;;
42832;SDS011;64089;51.478;5.692;2023-04-21T02:45:00;37.60;;;18.15;;
42832;SDS011;64089;51.478;5.692;2023-04-21T02:47:26;46.75;;;20.42;;
42832;SDS011;64089;51.478;5.692;2023-04-21T02:49:51;42.70;;;18.40;;
42832;SDS011;64089;51.478;5.692;2023-04-21T02:52:17;50.88;;;19.73;;
42832;SDS011;64089;51.478;5.692;2023-04-21T02:54:43;48.30;;;20.40;;
42832;SDS011;64089;51.478;5.692;2023-04-21T02:57:08;42.05;;;17.55;;
42832;SDS011;64089;51.478;5.692;2023-04-21T02:59:34;46.05;;;20.05;;
42832;SDS011;64089;51.478;5.692;2023-04-21T03:02:00;44.65;;;19.83;;
42832;SDS011;64089;51.478;5.692;2023-04-21T03:04:25;45.78;;;19.95;;
42832;SDS011;64089;51.478;5.692;2023-04-21T03:06:51;44.53;;;19.77;;
42832;SDS011;64089;51.478;5.692;2023-04-21T03:09:17;42.80;;;19.67;;
42832;SDS011;64089;51.478;5.692;2023-04-21T03:11:43;44.03;;;18.17;;
42832;SDS011;64089;51.478;5.692;2023-04-21T03:14:08;51.58;;;20.27;;
42832;SDS011;64089;51.478;5.692;2023-04-21T03:16:34;48.40;;;21.00;;
42832;SDS011;64089;51.478;5.692;2023-04-21T03:18:59;47.58;;;19.00;;
42832;SDS011;64089;51.478;5.692;2023-04-21T03:21:25;51.83;;;21.25;;
42832;SDS011;64089;51.478;5.692;2023-04-21T03:23:51;49.13;;;20.88;;
42832;SDS011;64089;51.478;5.692;2023-04-21T03:26:17;45.03;;;20.08;;
42832;SDS011;64089;51.478;5.692;2023-04-21T03:28:42;53.33;;;20.33;;
42832;SDS011;64089;51.478;5.692;2023-04-21T03:31:08;48.67;;;21.33;;
42832;SDS011;64089;51.478;5.692;2023-04-21T03:33:33;54.50;;;21.83;;
42832;SDS011;64089;51.478;5.692;2023-04-21T03:35:59;58.50;;;21.80;;
42832;SDS011;64089;51.478;5.692;2023-04-21T03:38:27;53.50;;;22.17;;
42832;SDS011;64089;51.478;5.692;2023-04-21T03:40:53;53.65;;;22.05;;
42832;SDS011;64089;51.478;5.692;2023-04-21T03:43:18;53.25;;;23.65;;
42832;SDS011;64089;51.478;5.692;2023-04-21T03:45:44;64.10;;;22.25;;
42832;SDS011;64089;51.478;5.692;2023-04-21T03:48:09;47.80;;;20.92;;
42832;SDS011;64089;51.478;5.692;2023-04-21T03:50:35;53.50;;;22.08;;
42832;SDS011;64089;51.478;5.692;2023-04-21T03:53:02;53.63;;;21.80;;
42832;SDS011;64089;51.478;5.692;2023-04-21T03:55:28;52.78;;;21.63;;
42832;SDS011;64089;51.478;5.692;2023-04-21T03:57:53;54.00;;;22.30;;
42832;SDS011;64089;51.478;5.692;2023-04-21T04:00:19;52.63;;;22.70;;
42832;SDS011;64089;51.478;5.692;2023-04-21T04:02:45;54.30;;;20.20;;
42832;SDS011;64089;51.478;5.692;2023-04-21T04:05:11;63.30;;;22.40;;
42832;SDS011;64089;51.478;5.692;2023-04-21T04:07:36;55.17;;;22.60;;
42832;SDS011;64089;51.478;5.692;2023-04-21T04:10:02;63.60;;;22.67;;
42832;SDS011;64089;51.478;5.692;2023-04-21T04:12:28;53.28;;;21.70;;
42832;SDS011;64089;51.478;5.692;2023-04-21T04:14:53;62.13;;;23.08;;
42832;SDS011;64089;51.478;5.692;2023-04-21T04:17:19;63.88;;;23.85;;
42832;SDS011;64089;51.478;5.692;2023-04-21T04:19:45;59.50;;;21.10;;
42832;SDS011;64089;51.478;5.692;2023-04-21T04:22:10;59.28;;;23.63;;
42832;SDS011;64089;51.478;5.692;2023-04-21T04:24:36;65.07;;;23.42;;
42832;SDS011;64089;51.478;5.692;2023-04-21T04:27:01;56.53;;;21.60;;
42832;SDS011;64089;51.478;5.692;2023-04-21T04:29:27;63.63;;;23.35;;
42832;SDS011;64089;51.478;5.692;2023-04-21T04:31:53;59.13;;;23.75;;
42832;SDS011;64089;51.478;5.692;2023-04-21T04:34:20;58.00;;;22.92;;
42832;SDS011;64089;51.478;5.692;2023-04-21T04:36:47;59.50;;;23.45;;
42832;SDS011;64089;51.478;5.692;2023-04-21T04:39:14;57.88;;;22.60;;
42832;SDS011;64089;51.478;5.692;2023-04-21T04:41:41;70.30;;;23.98;;
42832;SDS011;64089;51.478;5.692;2023-04-21T04:44:07;64.20;;;24.77;;
42832;SDS011;64089;51.478;5.692;2023-04-21T04:46:32;64.72;;;23.85;;
42832;SDS011;64089;51.478;5.692;2023-04-21T04:48:59;61.38;;;23.38;;
42832;SDS011;64089;51.478;5.692;2023-04-21T04:51:25;62.03;;;25.15;;
42832;SDS011;64089;51.478;5.692;2023-04-21T04:53:51;72.50;;;26.42;;
42832;SDS011;64089;51.478;5.692;2023-04-21T04:56:16;72.03;;;24.83;;
42832;SDS011;64089;51.478;5.692;2023-04-21T04:58:42;65.57;;;25.40;;
42832;SDS011;64089;51.478;5.692;2023-04-21T05:01:14;63.65;;;24.52;;
42832;SDS011;64089;51.478;5.692;2023-04-21T05:03:42;63.65;;;24.52;;
42832;SDS011;64089;51.478;5.692;2023-04-21T05:06:09;60.20;;;24.30;;
42832;SDS011;64089;51.478;5.692;2023-04-21T05:08:35;69.65;;;26.65;;
42832;SDS011;64089;51.478;5.692;2023-04-21T05:11:00;71.95;;;26.48;;
42832;SDS011;64089;51.478;5.692;2023-04-21T05:13:26;64.38;;;25.27;;
42832;SDS011;64089;51.478;5.692;2023-04-21T05:15:56;74.45;;;26.17;;
42832;SDS011;64089;51.478;5.692;2023-04-21T05:18:22;64.38;;;26.08;;
42832;SDS011;64089;51.478;5.692;2023-04-21T05:20:48;69.85;;;23.77;;
42832;SDS011;64089;51.478;5.692;2023-04-21T05:23:13;74.43;;;26.73;;
42832;SDS011;64089;51.478;5.692;2023-04-21T05:25:39;66.30;;;24.38;;
42832;SDS011;64089;51.478;5.692;2023-04-21T05:28:04;67.68;;;25.30;;
42832;SDS011;64089;51.478;5.692;2023-04-21T05:30:30;68.57;;;26.60;;
42832;SDS011;64089;51.478;5.692;2023-04-21T05:32:56;62.85;;;24.48;;
42832;SDS011;64089;51.478;5.692;2023-04-21T05:35:21;72.80;;;26.38;;
42832;SDS011;64089;51.478;5.692;2023-04-21T05:37:47;61.88;;;26.63;;
42832;SDS011;64089;51.478;5.692;2023-04-21T05:40:12;60.67;;;24.95;;
42832;SDS011;64089;51.478;5.692;2023-04-21T05:42:38;67.20;;;25.45;;
42832;SDS011;64089;51.478;5.692;2023-04-21T05:45:03;64.75;;;24.58;;
42832;SDS011;64089;51.478;5.692;2023-04-21T05:47:29;72.47;;;26.88;;
42832;SDS011;64089;51.478;5.692;2023-04-21T05:49:55;72.55;;;25.90;;
42832;SDS011;64089;51.478;5.692;2023-04-21T05:52:20;65.18;;;26.40;;
42832;SDS011;64089;51.478;5.692;2023-04-21T05:54:46;64.35;;;26.10;;
42832;SDS011;64089;51.478;5.692;2023-04-21T05:57:12;61.78;;;23.67;;
42832;SDS011;64089;51.478;5.692;2023-04-21T05:59:37;70.03;;;26.10;;
42832;SDS011;64089;51.478;5.692;2023-04-21T06:02:03;67.13;;;25.48;;
42832;SDS011;64089;51.478;5.692;2023-04-21T06:04:29;67.60;;;26.67;;
42832;SDS011;64089;51.478;5.692;2023-04-21T06:06:54;66.32;;;23.30;;
42832;SDS011;64089;51.478;5.692;2023-04-21T06:09:20;70.47;;;27.23;;
42832;SDS011;64089;51.478;5.692;2023-04-21T06:11:46;66.93;;;26.45;;
42832;SDS011;64089;51.478;5.692;2023-04-21T06:14:11;68.32;;;25.88;;
42832;SDS011;64089;51.478;5.692;2023-04-21T06:16:37;73.00;;;26.35;;
42832;SDS011;64089;51.478;5.692;2023-04-21T06:19:03;74.70;;;26.67;;
42832;SDS011;64089;51.478;5.692;2023-04-21T06:21:28;70.93;;;25.42;;
42832;SDS011;64089;51.478;5.692;2023-04-21T06:23:54;73.25;;;27.42;;
42832;SDS011;64089;51.478;5.692;2023-04-21T06:26:20;61.05;;;24.75;;
42832;SDS011;64089;51.478;5.692;2023-04-21T06:28:45;69.68;;;27.15;;
42832;SDS011;64089;51.478;5.692;2023-04-21T06:31:11;65.40;;;24.63;;
42832;SDS011;64089;51.478;5.692;2023-04-21T06:33:39;65.38;;;25.08;;
42832;SDS011;64089;51.478;5.692;2023-04-21T06:36:05;71.82;;;24.95;;
42832;SDS011;64089;51.478;5.692;2023-04-21T06:38:31;65.68;;;26.45;;
42832;SDS011;64089;51.478;5.692;2023-04-21T06:40:57;73.35;;;24.27;;
42832;SDS011;64089;51.478;5.692;2023-04-21T06:43:23;66.50;;;27.38;;
42832;SDS011;64089;51.478;5.692;2023-04-21T06:45:49;67.05;;;25.00;;
42832;SDS011;64089;51.478;5.692;2023-04-21T06:48:14;65.10;;;26.52;;
42832;SDS011;64089;51.478;5.692;2023-04-21T06:50:40;69.22;;;25.45;;
42832;SDS011;64089;51.478;5.692;2023-04-21T06:53:09;67.78;;;27.45;;
42832;SDS011;64089;51.478;5.692;2023-04-21T06:55:35;71.28;;;27.05;;
42832;SDS011;64089;51.478;5.692;2023-04-21T06:58:01;59.70;;;24.90;;
42832;SDS011;64089;51.478;5.692;2023-04-21T07:00:27;61.63;;;23.60;;
42832;SDS011;64089;51.478;5.692;2023-04-21T07:02:52;71.55;;;29.02;;
42832;SDS011;64089;51.478;5.692;2023-04-21T07:05:18;80.65;;;31.70;;
42832;SDS011;64089;51.478;5.692;2023-04-21T07:07:43;108.60;;;44.35;;
42832;SDS011;64089;51.478;5.692;2023-04-21T07:10:09;85.90;;;38.15;;
42832;SDS011;64089;51.478;5.692;2023-04-21T07:12:35;58.35;;;23.83;;
42832;SDS011;64089;51.478;5.692;2023-04-21T07:15:01;56.85;;;22.65;;
42832;SDS011;64089;51.478;5.692;2023-04-21T07:17:26;54.40;;;23.15;;
42832;SDS011;64089;51.478;5.692;2023-04-21T07:19:52;51.53;;;22.67;;
42832;SDS011;64089;51.478;5.692;2023-04-21T07:22:17;46.95;;;19.23;;
42832;SDS011;64089;51.478;5.692;2023-04-21T07:24:43;46.35;;;19.77;;
42832;SDS011;64089;51.478;5.692;2023-04-21T07:27:09;50.15;;;20.58;;
42832;SDS011;64089;51.478;5.692;2023-04-21T07:29:34;45.75;;;23.05;;
42832;SDS011;64089;51.478;5.692;2023-04-21T07:32:01;47.53;;;21.70;;
42832;SDS011;64089;51.478;5.692;2023-04-21T07:34:26;44.58;;;19.23;;
42832;SDS011;64089;51.478;5.692;2023-04-21T07:36:53;43.17;;;20.50;;
42832;SDS011;64089;51.478;5.692;2023-04-21T07:39:20;43.25;;;19.67;;
42832;SDS011;64089;51.478;5.692;2023-04-21T07:41:45;42.45;;;19.23;;
42832;SDS011;64089;51.478;5.692;2023-04-21T07:44:11;34.92;;;17.20;;
42832;SDS011;64089;51.478;5.692;2023-04-21T07:46:36;35.63;;;17.02;;
42832;SDS011;64089;51.478;5.692;2023-04-21T07:49:02;33.08;;;16.13;;
42832;SDS011;64089;51.478;5.692;2023-04-21T07:51:28;34.15;;;16.58;;
42832;SDS011;64089;51.478;5.692;2023-04-21T07:53:53;33.35;;;17.55;;
42832;SDS011;64089;51.478;5.692;2023-04-21T07:56:19;37.30;;;17.20;;
42832;SDS011;64089;51.478;5.692;2023-04-21T07:58:45;39.33;;;16.80;;
42832;SDS011;64089;51.478;5.692;2023-04-21T08:01:11;32.38;;;14.75;;
42832;SDS011;64089;51.478;5.692;2023-04-21T08:03:36;31.40;;;15.05;;
42832;SDS011;64089;51.478;5.692;2023-04-21T08:06:02;32.35;;;14.10;;
42832;SDS011;64089;51.478;5.692;2023-04-21T08:08:28;28.55;;;13.30;;
42832;SDS011;64089;51.478;5.692;2023-04-21T08:10:53;25.83;;;14.50;;
42832;SDS011;64089;51.478;5.692;2023-04-21T08:13:19;26.92;;;14.05;;
42832;SDS011;64089;51.478;5.692;2023-04-21T08:15:49;24.33;;;12.60;;
42832;SDS011;64089;51.478;5.692;2023-04-21T08:18:15;27.35;;;12.88;;
42832;SDS011;64089;51.478;5.692;2023-04-21T08:20:42;26.40;;;13.80;;
42832;SDS011;64089;51.478;5.692;2023-04-21T08:23:08;26.08;;;13.30;;
42832;SDS011;64089;51.478;5.692;2023-04-21T08:25:34;27.70;;;14.25;;
42832;SDS011;64089;51.478;5.692;2023-04-21T08:28:00;29.13;;;13.45;;
42832;SDS011;64089;51.478;5.692;2023-04-21T08:30:26;30.95;;;13.20;;
42832;SDS011;64089;51.478;5.692;2023-04-21T08:32:52;23.63;;;11.85;;
42832;SDS011;64089;51.478;5.692;2023-04-21T08:35:17;20.95;;;10.05;;
42832;SDS011;64089;51.478;5.692;2023-04-21T08:37:43;21.13;;;10.55;;
42832;SDS011;64089;51.478;5.692;2023-04-21T08:40:09;20.05;;;10.32;;
42832;SDS011;64089;51.478;5.692;2023-04-21T08:42:35;20.38;;;10.52;;
42832;SDS011;64089;51.478;5.692;2023-04-21T08:45:02;18.83;;;9.75;;
42832;SDS011;64089;51.478;5.692;2023-04-21T08:47:29;18.15;;;9.93;;
42832;SDS011;64089;51.478;5.692;2023-04-21T08:49:55;20.13;;;10.82;;
42832;SDS011;64089;51.478;5.692;2023-04-21T08:52:22;20.08;;;10.35;;
42832;SDS011;64089;51.478;5.692;2023-04-21T08:54:48;20.40;;;9.73;;
42832;SDS011;64089;51.478;5.692;2023-04-21T08:57:16;20.25;;;9.95;;
42832;SDS011;64089;51.478;5.692;2023-04-21T08:59:45;21.52;;;10.60;;
42832;SDS011;64089;51.478;5.692;2023-04-21T09:02:12;20.83;;;9.65;;
42832;SDS011;64089;51.478;5.692;2023-04-21T09:04:40;21.52;;;10.98;;
42832;SDS011;64089;51.478;5.692;2023-04-21T09:07:10;19.27;;;9.90;;
42832;SDS011;64089;51.478;5.692;2023-04-21T09:09:51;21.02;;;10.38;;
42832;SDS011;64089;51.478;5.692;2023-04-21T09:12:23;26.55;;;10.65;;
42832;SDS011;64089;51.478;5.692;2023-04-21T09:14:58;18.33;;;9.88;;
42832;SDS011;64089;51.478;5.692;2023-04-21T09:17:29;18.35;;;9.88;;
42832;SDS011;64089;51.478;5.692;2023-04-21T09:20:13;19.40;;;10.48;;
42832;SDS011;64089;51.478;5.692;2023-04-21T09:22:41;18.48;;;10.40;;
42832;SDS011;64089;51.478;5.692;2023-04-21T09:25:07;20.83;;;10.68;;
42832;SDS011;64089;51.478;5.692;2023-04-21T09:27:36;22.10;;;11.88;;
42832;SDS011;64089;51.478;5.692;2023-04-21T09:30:04;23.02;;;12.10;;
42832;SDS011;64089;51.478;5.692;2023-04-21T09:32:38;26.10;;;10.60;;
42832;SDS011;64089;51.478;5.692;2023-04-21T09:35:05;23.63;;;10.77;;
42832;SDS011;64089;51.478;5.692;2023-04-21T09:37:34;20.92;;;10.50;;
42832;SDS011;64089;51.478;5.692;2023-04-21T09:40:00;22.83;;;11.73;;
42832;SDS011;64089;51.478;5.692;2023-04-21T09:42:29;21.35;;;10.98;;
42832;SDS011;64089;51.478;5.692;2023-04-21T09:44:56;18.45;;;10.13;;
42832;SDS011;64089;51.478;5.692;2023-04-21T09:47:22;19.35;;;10.43;;
42832;SDS011;64089;51.478;5.692;2023-04-21T09:49:51;21.45;;;11.35;;
42832;SDS011;64089;51.478;5.692;2023-04-21T09:52:18;20.08;;;10.25;;
42832;SDS011;64089;51.478;5.692;2023-04-21T09:54:48;19.38;;;10.05;;
42832;SDS011;64089;51.478;5.692;2023-04-21T09:57:23;18.25;;;10.18;;
42832;SDS011;64089;51.478;5.692;2023-04-21T09:59:51;17.05;;;9.32;;
42832;SDS011;64089;51.478;5.692;2023-04-21T10:02:22;20.30;;;10.10;;
42832;SDS011;64089;51.478;5.692;2023-04-21T10:04:50;18.92;;;9.18;;
42832;SDS011;64089;51.478;5.692;2023-04-21T10:07:16;21.45;;;10.32;;
42832;SDS011;64089;51.478;5.692;2023-04-21T10:09:49;17.38;;;9.65;;
42832;SDS011;64089;51.478;5.692;2023-04-21T10:12:18;17.48;;;8.93;;
42832;SDS011;64089;51.478;5.692;2023-04-21T10:14:45;21.58;;;10.05;;
42832;SDS011;64089;51.478;5.692;2023-04-21T10:17:15;19.08;;;10.05;;
42832;SDS011;64089;51.478;5.692;2023-04-21T10:19:48;18.70;;;9.90;;
42832;SDS011;64089;51.478;5.692;2023-04-21T10:22:25;18.92;;;10.27;;
42832;SDS011;64089;51.478;5.692;2023-04-21T10:24:55;21.95;;;11.77;;
42832;SDS011;64089;51.478;5.692;2023-04-21T10:27:39;20.85;;;10.43;;
42832;SDS011;64089;51.478;5.692;2023-04-21T10:30:26;20.17;;;10.93;;
42832;SDS011;64089;51.478;5.692;2023-04-21T10:33:04;20.38;;;11.35;;
42832;SDS011;64089;51.478;5.692;2023-04-21T10:35:56;20.70;;;10.13;;
42832;SDS011;64089;51.478;5.692;2023-04-21T10:38:53;14.93;;;8.88;;
42832;SDS011;64089;51.478;5.692;2023-04-21T10:41:25;15.23;;;9.25;;
42832;SDS011;64089;51.478;5.692;2023-04-21T10:57:01;16.42;;;9.02;;
42832;SDS011;64089;51.478;5.692;2023-04-21T10:59:30;15.30;;;8.88;;
42832;SDS011;64089;51.478;5.692;2023-04-21T11:01:56;17.45;;;9.57;;
42832;SDS011;64089;51.478;5.692;2023-04-21T11:04:21;15.38;;;8.20;;
42832;SDS011;64089;51.478;5.692;2023-04-21T11:07:06;14.77;;;8.70;;
42832;SDS011;64089;51.478;5.692;2023-04-21T11:09:37;17.30;;;8.05;;
42832;SDS011;64089;51.478;5.692;2023-04-21T11:12:05;13.65;;;8.23;;
42832;SDS011;64089;51.478;5.692;2023-04-21T11:14:35;16.10;;;8.18;;
42832;SDS011;64089;51.478;5.692;2023-04-21T11:17:09;13.93;;;7.57;;
42832;SDS011;64089;51.478;5.692;2023-04-21T11:19:36;11.50;;;6.57;;
42832;SDS011;64089;51.478;5.692;2023-04-21T11:22:05;14.80;;;7.80;;
42832;SDS011;64089;51.478;5.692;2023-04-21T11:24:31;13.38;;;7.30;;
42832;SDS011;64089;51.478;5.692;2023-04-21T11:26:57;14.43;;;7.93;;
42832;SDS011;64089;51.478;5.692;2023-04-21T11:29:26;14.98;;;8.13;;
42832;SDS011;64089;51.478;5.692;2023-04-21T11:31:53;14.05;;;7.53;;
42832;SDS011;64089;51.478;5.692;2023-04-21T11:34:19;13.02;;;7.53;;
42832;SDS011;64089;51.478;5.692;2023-04-21T11:36:46;14.23;;;7.22;;
42832;SDS011;64089;51.478;5.692;2023-04-21T11:39:13;11.73;;;7.13;;
42832;SDS011;64089;51.478;5.692;2023-04-21T11:41:42;13.18;;;7.18;;
42832;SDS011;64089;51.478;5.692;2023-04-21T11:44:09;13.65;;;7.43;;
42832;SDS011;64089;51.478;5.692;2023-04-21T11:46:35;12.73;;;7.22;;
42832;SDS011;64089;51.478;5.692;2023-04-21T11:49:03;14.35;;;7.68;;
42832;SDS011;64089;51.478;5.692;2023-04-21T11:51:35;12.05;;;6.85;;
42832;SDS011;64089;51.478;5.692;2023-04-21T11:54:06;12.90;;;7.20;;
42832;SDS011;64089;51.478;5.692;2023-04-21T11:56:33;12.05;;;6.75;;
42832;SDS011;64089;51.478;5.692;2023-04-21T11:59:10;10.43;;;6.03;;
42832;SDS011;64089;51.478;5.692;2023-04-21T12:01:49;10.60;;;6.18;;
42832;SDS011;64089;51.478;5.692;2023-04-21T12:04:16;15.73;;;6.75;;
42832;SDS011;64089;51.478;5.692;2023-04-21T12:06:55;11.85;;;6.45;;
42832;SDS011;64089;51.478;5.692;2023-04-21T12:09:22;12.38;;;6.85;;
42832;SDS011;64089;51.478;5.692;2023-04-21T12:11:48;14.00;;;6.82;;
42832;SDS011;64089;51.478;5.692;2023-04-21T12:14:20;18.67;;;8.13;;
42832;SDS011;64089;51.478;5.692;2023-04-21T12:16:47;10.43;;;6.30;;
42832;SDS011;64089;51.478;5.692;2023-04-21T12:22:10;13.68;;;7.35;;
42832;SDS011;64089;51.478;5.692;2023-04-21T12:24:37;15.57;;;7.25;;
42832;SDS011;64089;51.478;5.692;2023-04-21T12:27:03;12.82;;;6.40;;
42832;SDS011;64089;51.478;5.692;2023-04-21T12:29:30;14.13;;;6.57;;
42832;SDS011;64089;51.478;5.692;2023-04-21T12:31:56;14.70;;;7.18;;
42832;SDS011;64089;51.478;5.692;2023-04-21T12:34:21;11.07;;;6.40;;
42832;SDS011;64089;51.478;5.692;2023-04-21T12:36:47;14.93;;;7.47;;
42832;SDS011;64089;51.478;5.692;2023-04-21T12:39:13;15.35;;;7.22;;
42832;SDS011;64089;51.478;5.692;2023-04-21T12:41:41;14.23;;;7.75;;
42832;SDS011;64089;51.478;5.692;2023-04-21T12:44:06;12.00;;;6.93;;
42832;SDS011;64089;51.478;5.692;2023-04-21T12:46:32;11.65;;;7.53;;
42832;SDS011;64089;51.478;5.692;2023-04-21T12:48:58;14.25;;;8.18;;
42832;SDS011;64089;51.478;5.692;2023-04-21T12:51:24;13.25;;;7.88;;
42832;SDS011;64089;51.478;5.692;2023-04-21T12:53:50;14.00;;;7.25;;
42832;SDS011;64089;51.478;5.692;2023-04-21T12:56:16;12.57;;;7.55;;
42832;SDS011;64089;51.478;5.692;2023-04-21T12:58:42;15.88;;;8.23;;
42832;SDS011;64089;51.478;5.692;2023-04-21T13:01:08;14.18;;;8.50;;
42832;SDS011;64089;51.478;5.692;2023-04-21T13:03:33;13.57;;;7.57;;
42832;SDS011;64089;51.478;5.692;2023-04-21T13:05:59;13.40;;;7.13;;
42832;SDS011;64089;51.478;5.692;2023-04-21T13:08:25;18.83;;;9.88;;
42832;SDS011;64089;51.478;5.692;2023-04-21T13:10:50;16.33;;;10.25;;
42832;SDS011;64089;51.478;5.692;2023-04-21T13:13:16;17.65;;;10.18;;
42832;SDS011;64089;51.478;5.692;2023-04-21T13:15:41;20.02;;;11.82;;
42832;SDS011;64089;51.478;5.692;2023-04-21T13:18:07;22.85;;;11.80;;
42832;SDS011;64089;51.478;5.692;2023-04-21T13:20:33;21.70;;;10.38;;
42832;SDS011;64089;51.478;5.692;2023-04-21T13:22:59;19.50;;;10.75;;
42832;SDS011;64089;51.478;5.692;2023-04-21T13:25:24;22.73;;;11.23;;
42832;SDS011;64089;51.478;5.692;2023-04-21T13:27:50;14.32;;;8.70;;
42832;SDS011;64089;51.478;5.692;2023-04-21T13:30:16;21.02;;;10.13;;
42832;SDS011;64089;51.478;5.692;2023-04-21T13:32:42;23.30;;;12.10;;
42832;SDS011;64089;51.478;5.692;2023-04-21T13:35:09;19.73;;;11.27;;
42832;SDS011;64089;51.478;5.692;2023-04-21T13:37:38;18.38;;;11.20;;
42832;SDS011;64089;51.478;5.692;2023-04-21T13:40:04;18.95;;;10.20;;
42832;SDS011;64089;51.478;5.692;2023-04-21T13:42:33;16.85;;;10.30;;
42832;SDS011;64089;51.478;5.692;2023-04-21T13:45:00;21.65;;;13.27;;
42832;SDS011;64089;51.478;5.692;2023-04-21T13:47:29;25.08;;;13.02;;
42832;SDS011;64089;51.478;5.692;2023-04-21T13:49:55;30.65;;;13.82;;
42832;SDS011;64089;51.478;5.692;2023-04-21T13:52:21;27.38;;;15.02;;
42832;SDS011;64089;51.478;5.692;2023-04-21T13:54:47;24.67;;;13.73;;
42832;SDS011;64089;51.478;5.692;2023-04-21T13:57:12;22.98;;;13.77;;
42832;SDS011;64089;51.478;5.692;2023-04-21T13:59:38;27.60;;;13.82;;
42832;SDS011;64089;51.478;5.692;2023-04-21T14:02:05;26.75;;;13.55;;
42832;SDS011;64089;51.478;5.692;2023-04-21T14:04:31;26.55;;;14.82;;
42832;SDS011;64089;51.478;5.692;2023-04-21T14:06:57;25.42;;;14.90;;
42832;SDS011;64089;51.478;5.692;2023-04-21T14:09:22;22.98;;;12.77;;
42832;SDS011;64089;51.478;5.692;2023-04-21T14:11:48;23.40;;;13.43;;
42832;SDS011;64089;51.478;5.692;2023-04-21T14:14:14;24.00;;;12.65;;
42832;SDS011;64089;51.478;5.692;2023-04-21T14:16:39;23.80;;;12.40;;
42832;SDS011;64089;51.478;5.692;2023-04-21T14:19:07;28.63;;;12.25;;
42832;SDS011;64089;51.478;5.692;2023-04-21T14:21:34;22.58;;;13.15;;
42832;SDS011;64089;51.478;5.692;2023-04-21T14:23:59;22.02;;;13.15;;
42832;SDS011;64089;51.478;5.692;2023-04-21T14:26:25;21.05;;;13.13;;
42832;SDS011;64089;51.478;5.692;2023-04-21T14:28:50;26.08;;;12.40;;
42832;SDS011;64089;51.478;5.692;2023-04-21T14:31:16;29.50;;;13.75;;
42832;SDS011;64089;51.478;5.692;2023-04-21T14:33:42;26.63;;;12.75;;
42832;SDS011;64089;51.478;5.692;2023-04-21T14:36:07;29.20;;;12.93;;
42832;SDS011;64089;51.478;5.692;2023-04-21T14:38:34;24.77;;;12.70;;
42832;SDS011;64089;51.478;5.692;2023-04-21T14:41:00;19.88;;;10.82;;
42832;SDS011;64089;51.478;5.692;2023-04-21T14:43:27;21.45;;;12.00;;